Latest Weather Observations for Yanakie

IDV60801

Issued at 3:02 pm EST Saturday 30 April 2016 (issued every 30 minutes, with the page automatically refreshed every 10 minutes)

About weather observations | Map of weather stations | Latest weather observations for VIC | Other Formats
Station Details ID: 085301 Name: YANAKIE Lat: -38.81 Lon: 146.19 Height: 13.3 m
Data from the previous 72 hours. | See also: Recent months at Yanakie
Date/Time
EST
Temp
°C
App
Temp
°C
Dew
Point
Rel
Hum
%
Delta-T
°C
Wind Press
QNH
hPa
Press
MSL
hPa
Rain
since 9 am
mm
Dir
 
Spd
km/h
Gust
km/h
Spd
kts
Gust
kts
30/03:00pm 24.6 21.1 13.5 50 6.5 NNW 24 32 13 17 1010.7 1010.7 0.0
30/02:30pm 23.6 20.2 13.8 54 5.7 NNW 24 35 13 19 1010.9 1010.9 0.0
30/02:00pm 24.6 21.7 14.1 52 6.2 NNW 22 35 12 19 1010.9 1010.9 0.0
30/01:30pm 24.6 21.6 14.7 54 5.9 NNW 24 35 13 19 1011.1 1011.1 0.0
30/01:00pm 24.2 21.6 14.9 56 5.6 NNW 22 32 12 17 1011.5 1011.5 0.0
30/12:30pm 23.8 20.8 15.8 61 4.8 NNW 26 35 14 19 1012.0 1012.0 0.0
30/12:00pm 21.3 22.8 17.5 79 2.3 NE 6 7 3 4 1012.8 1012.8 0.0
30/11:30am 20.0 20.6 15.8 77 2.5 NE 7 11 4 6 1013.1 1013.1 0.0
30/11:00am 20.2 20.7 15.6 75 2.7 ENE 7 11 4 6 1013.5 1013.5 0.0
30/10:30am 20.5 20.6 16.5 78 2.4 ENE 11 15 6 8 1013.5 1013.5 0.0
30/10:00am 20.4 21.8 18.7 90 1.1 NE 9 13 5 7 1013.8 1013.8 0.0
30/09:30am 19.2 20.5 18.5 96 0.4 NE 9 15 5 8 1014.1 1014.1 0.0
30/09:00am 18.1 19.2 18.1 100 0.0 ENE 9 13 5 7 1014.3 1014.3 5.6
30/08:30am 17.1 18.4 17.1 100 0.0 ENE 6 13 3 7 1014.5 1014.5 5.6
30/08:00am 15.7 16.4 15.7 100 0.0 ENE 6 9 3 5 1014.5 1014.5 5.6
30/07:30am 13.9 14.0 13.9 100 0.0 NE 6 9 3 5 1014.3 1014.3 5.6
30/07:00am 13.9 13.8 13.9 100 0.0 NNE 7 9 4 5 1014.1 1014.1 5.6
30/06:30am 14.2 14.2 14.2 100 0.0 NE 7 9 4 5 1013.8 1013.8 5.4
30/06:00am 15.0 14.9 15.0 100 0.0 NNE 9 9 5 5 1013.8 1013.8 5.4
30/05:30am 14.9 14.8 14.9 100 0.0 NNE 9 11 5 6 1013.9 1013.9 5.4
30/05:00am 14.5 14.6 14.5 100 0.0 N 7 9 4 5 1013.7 1013.7 5.4
30/04:30am 14.9 15.4 14.9 100 0.0 NNW 6 9 3 5 1013.6 1013.6 5.4
30/04:00am 13.9 14.4 13.9 100 0.0 N 4 6 2 3 1013.4 1013.4 5.4
30/03:30am 14.0 14.5 14.0 100 0.0 NNE 4 4 2 2 1013.5 1013.5 5.4
30/03:00am 14.2 15.2 14.2 100 0.0 N 2 4 1 2 1013.6 1013.6 5.4
30/02:30am 14.7 15.8 14.7 100 0.0 N 2 6 1 3 1013.6 1013.6 5.4
30/02:00am 14.9 16.5 14.9 100 0.0 CALM 0 0 0 0 1013.8 1013.8 5.4
30/01:30am 15.5 16.2 15.5 100 0.0 NNE 6 6 3 3 1013.8 1013.8 5.4
30/01:00am 15.7 16.4 15.7 100 0.0 NNE 6 7 3 4 1013.7 1013.7 5.4
30/12:30am 15.4 16.4 15.4 100 0.0 NE 4 6 2 3 1013.6 1013.6 5.4
30/12:00am 15.6 16.1 15.6 100 0.0 NNE 7 9 4 5 1013.5 1013.5 5.4
 
Date/Time
EST
Temp
°C
App
Temp
°C
Dew
Point
Rel
Hum
%
Delta-T
°C
Wind Press
QNH
hPa
Press
MSL
hPa
Rain
since 9 am
mm
Dir
 
Spd
km/h
Gust
km/h
Spd
kts
Gust
kts
29/11:30pm 15.7 16.4 15.7 100 0.0 NNE 6 9 3 5 1013.8 1013.8 5.4
29/11:00pm 15.8 16.6 15.8 100 0.0 N 6 7 3 4 1014.1 1014.1 5.4
29/10:30pm 15.6 16.3 15.6 100 0.0 NNE 6 6 3 3 1014.4 1014.4 5.4
29/10:00pm 15.8 17.0 15.8 100 0.0 NE 4 6 2 3 1014.5 1014.5 5.4
29/09:30pm 15.7 16.4 15.7 100 0.0 NE 6 6 3 3 1014.4 1014.4 5.4
29/09:00pm 15.1 15.6 14.9 99 0.1 ENE 6 7 3 4 1014.0 1014.0 5.4
29/08:30pm 14.7 15.0 14.5 99 0.1 NE 6 6 3 3 1014.0 1014.0 5.4
29/08:00pm 13.4 14.4 13.2 99 0.1 CALM 0 2 0 1 1013.8 1013.8 5.4
29/07:30pm 13.5 14.5 13.3 99 0.1 CALM 0 0 0 0 1013.7 1013.7 5.4
29/07:00pm 14.2 15.4 13.9 98 0.2 CALM 0 0 0 0 1013.5 1013.5 5.4
29/06:30pm 14.8 15.9 14.5 98 0.2 E 2 4 1 2 1013.2 1013.2 5.2
29/06:00pm 15.9 17.0 15.6 98 0.2 ESE 4 6 2 3 1012.8 1012.8 5.2
29/05:30pm 16.3 17.1 15.8 97 0.3 ENE 6 7 3 4 1012.7 1012.7 5.2
29/05:00pm 16.5 17.7 16.0 97 0.3 NNE 4 7 2 4 1013.1 1013.1 5.2
29/04:30pm 16.5 17.7 15.9 96 0.4 N 4 4 2 2 1013.5 1013.5 5.0
29/04:00pm 16.6 17.5 16.0 96 0.4 NNW 6 7 3 4 1013.9 1013.9 4.6
29/03:30pm 16.7 17.5 15.9 95 0.5 NW 6 9 3 5 1014.1 1014.1 4.2
29/03:00pm 16.7 17.2 15.6 93 0.6 NW 7 11 4 6 1014.1 1014.1 3.6
29/02:30pm 16.9 16.7 15.6 92 0.8 NNW 11 17 6 9 1013.7 1013.7 2.6
29/02:00pm 17.1 15.3 15.4 90 1.0 NW 19 28 10 15 1013.7 1013.7 2.2
29/01:30pm 17.8 16.1 15.8 88 1.2 NNW 19 28 10 15 1013.5 1013.5 1.6
29/01:00pm 17.7 18.0 15.9 89 1.1 N 9 17 5 9 1013.5 1013.5 1.6
29/12:30pm 17.7 18.3 15.9 89 1.1 NNE 7 13 4 7 1014.0 1014.0 1.4
29/12:00pm 17.5 17.9 14.8 84 1.6 N 6 7 3 4 1014.4 1014.4 1.2
29/11:30am 18.8 17.7 14.3 75 2.6 WNW 13 17 7 9 1014.7 1014.7 0.0
29/11:00am 18.9 18.7 14.6 76 2.5 WNW 9 13 5 7 1014.7 1014.7 0.0
29/10:30am 18.2 18.0 13.5 74 2.7 W 7 11 4 6 1014.8 1014.8 0.0
29/10:00am 19.6 14.7 12.6 64 3.9 WNW 30 41 16 22 1014.8 1014.8 0.0
29/09:50am 22.4 19.1 11.5 50 6.1 NW 20 48 11 26 1014.6 1014.6 0.0
29/09:30am 22.8 19.3 10.9 47 6.6 N 20 32 11 17 1013.8 1013.8 0.0
29/09:00am 22.8 20.3 11.2 48 6.5 N 15 24 8 13 1014.2 1014.2 0.0
29/08:30am 19.6 19.1 13.8 69 3.3 ENE 9 13 5 7 1014.5 1014.5 0.0
29/08:00am 18.9 18.4 13.7 72 3.0 ENE 9 15 5 8 1014.4 1014.4 0.0
29/07:30am 18.0 17.3 13.3 74 2.7 ENE 9 11 5 6 1014.3 1014.3 0.0
29/07:00am 17.8 17.1 13.3 75 2.5 ENE 9 13 5 7 1014.4 1014.4 0.0
29/06:30am 17.7 17.0 13.2 75 2.5 ENE 9 13 5 7 1014.2 1014.2 0.0
29/06:00am 17.0 16.5 13.9 82 1.8 ENE 9 13 5 7 1014.5 1014.5 0.0
29/05:30am 16.9 16.5 14.2 84 1.5 ENE 9 13 5 7 1014.7 1014.7 0.0
29/05:00am 16.6 16.0 14.6 88 1.1 ENE 11 13 6 7 1014.8 1014.8 0.0
29/04:30am 16.4 16.2 14.8 90 0.9 ENE 9 15 5 8 1014.9 1014.9 0.0
29/04:00am 16.5 16.0 15.0 91 0.9 ENE 11 15 6 8 1014.7 1014.7 0.0
29/03:30am 15.8 15.5 14.3 91 0.9 NE 9 11 5 6 1015.0 1015.0 0.0
29/03:00am 16.0 15.7 14.4 90 0.9 NNE 9 13 5 7 1015.2 1015.2 0.0
29/02:30am 16.6 16.7 14.4 87 1.3 NNE 7 11 4 6 1015.5 1015.5 0.0
29/02:00am 17.0 16.8 14.6 86 1.4 NE 9 13 5 7 1015.7 1015.7 0.0
29/01:30am 17.5 17.3 14.6 83 1.7 NE 9 17 5 9 1016.0 1016.0 0.0
29/01:00am 17.4 17.1 14.5 83 1.7 ENE 9 13 5 7 1016.3 1016.3 0.0
29/12:30am 17.4 16.7 13.3 77 2.3 ENE 9 11 5 6 1016.5 1016.5 0.0
29/12:00am 18.1 17.0 13.2 73 2.8 E 11 17 6 9 1016.6 1016.6 0.0
 
Date/Time
EST
Temp
°C
App
Temp
°C
Dew
Point
Rel
Hum
%
Delta-T
°C
Wind Press
QNH
hPa
Press
MSL
hPa
Rain
since 9 am
mm
Dir
 
Spd
km/h
Gust
km/h
Spd
kts
Gust
kts
28/11:30pm 18.1 16.4 12.5 70 3.1 E 13 24 7 13 1016.9 1016.9 0.0
28/11:00pm 18.2 16.9 12.6 70 3.1 E 11 24 6 13 1017.2 1017.2 0.0
28/10:30pm 18.1 16.2 13.0 72 2.9 E 15 22 8 12 1017.4 1017.4 0.0
28/10:00pm 17.9 16.5 13.4 75 2.5 E 13 19 7 10 1017.5 1017.5 0.0
28/09:30pm 18.1 16.8 13.8 76 2.5 ENE 13 20 7 11 1017.7 1017.7 0.0
28/09:00pm 17.6 17.4 14.7 83 1.7 E 9 13 5 7 1017.6 1017.6 0.0
28/08:30pm 17.6 16.6 14.5 82 1.8 ENE 13 19 7 10 1017.5 1017.5 0.0
28/08:00pm 17.5 16.5 14.6 83 1.7 ENE 13 17 7 9 1017.7 1017.7 0.0
28/07:30pm 17.6 17.1 13.9 79 2.1 NE 9 13 5 7 1017.6 1017.6 0.0
28/07:00pm 17.6 17.5 13.9 79 2.1 NE 7 11 4 6 1017.5 1017.5 0.0
28/06:30pm 17.0 16.4 13.5 80 2.0 NE 9 13 5 7 1017.4 1017.4 0.0
28/06:00pm 17.3 17.2 13.4 78 2.2 NNE 6 7 3 4 1017.2 1017.2 0.0
28/05:30pm 17.3 17.0 13.2 77 2.3 E 7 9 4 5 1017.1 1017.1 0.0
28/05:00pm 17.8 17.5 13.3 75 2.5 S 7 9 4 5 1017.1 1017.1 0.0
28/04:30pm 18.4 18.4 13.7 74 2.7 S 6 9 3 5 1017.3 1017.3 0.0
28/04:00pm 19.0 17.4 13.8 72 3.0 SW 15 19 8 10 1017.8 1017.8 0.0
28/03:30pm 19.5 18.6 13.7 69 3.3 SW 11 13 6 7 1018.0 1018.0 0.0
28/03:00pm 20.4 20.6 13.1 63 4.1 SW 4 9 2 5 1017.4 1017.4 0.0
28/02:30pm 20.8 20.9 12.8 60 4.5 SSE 4 6 2 3 1016.8 1016.8 0.0
28/02:00pm 21.4 20.9 12.0 55 5.3 SSW 6 11 3 6 1016.7 1016.7 0.0
28/01:30pm 21.7 21.3 12.3 55 5.3 SW 6 11 3 6 1016.9 1016.9 0.0
28/01:00pm 24.9 21.5 9.2 37 8.5 NW 17 22 9 12 1016.9 1016.9 0.0
28/12:30pm 25.6 22.3 9.4 36 8.9 NNW 17 24 9 13 1016.9 1016.9 0.0
28/12:00pm 24.1 21.8 8.9 38 8.2 WNW 11 15 6 8 1017.0 1017.0 0.0
28/11:30am 23.8 19.7 8.6 38 8.1 WNW 20 32 11 17 1017.7 1017.7 0.0
28/11:00am 25.2 20.2 9.5 37 8.6 NW 26 43 14 23 1017.7 1017.7 0.0
28/10:30am 24.4 18.5 10.3 41 7.8 NW 32 43 17 23 1017.6 1017.6 0.0
28/10:01am 24.2 19.1 10.5 42 7.6 NW 28 46 15 25 1017.4 1017.4 0.0
28/10:00am 24.1 19.4 10.7 43 7.4 NW 26 43 14 23 1017.4 1017.4 0.0
28/09:30am 24.2 19.3 10.1 41 7.8 NW 26 39 14 21 1017.0 1017.0 0.0
28/09:00am 23.7 19.7 10.4 43 7.3 NNW 22 33 12 18 1016.6 1016.6 0.2
28/08:30am 23.3 19.6 10.0 43 7.3 NNW 20 28 11 15 1016.5 1016.5 0.2
28/08:00am 23.0 20.1 9.8 43 7.2 NNW 15 24 8 13 1016.4 1016.4 0.2
28/07:30am 23.0 19.7 9.4 42 7.3 NNW 17 22 9 12 1016.1 1016.1 0.2
28/07:00am 22.1 19.1 9.3 44 6.9 N 15 19 8 10 1015.7 1015.7 0.2
28/06:30am 21.7 18.7 9.3 45 6.6 N 15 20 8 11 1015.4 1015.4 0.2
28/06:00am 21.6 18.5 8.8 44 6.8 N 15 19 8 10 1015.4 1015.4 0.2
28/05:30am 22.5 18.4 8.6 41 7.4 NNW 20 26 11 14 1015.3 1015.3 0.2
28/05:00am 22.0 18.5 8.9 43 7.0 NNW 17 26 9 14 1015.4 1015.4 0.2
28/04:30am 20.1 17.8 9.1 49 5.8 N 11 15 6 8 1015.2 1015.2 0.2
28/04:00am 20.4 17.6 8.7 47 6.1 N 13 19 7 10 1015.2 1015.2 0.2
28/03:30am 21.2 18.1 8.8 45 6.6 NNW 15 19 8 10 1015.2 1015.2 0.2
28/03:00am 21.1 18.3 8.7 45 6.5 N 13 17 7 9 1015.2 1015.2 0.2
28/02:30am 21.1 19.1 8.7 45 6.5 N 9 13 5 7 1015.3 1015.3 0.2
28/02:00am 21.9 18.8 8.8 43 6.9 N 15 20 8 11 1015.4 1015.4 0.2
28/01:30am 22.5 18.6 8.6 41 7.4 NNW 19 26 10 14 1015.4 1015.4 0.2
28/01:00am 21.5 19.1 8.7 44 6.8 N 11 19 6 10 1015.3 1015.3 0.2
28/12:30am 21.7 19.0 8.9 44 6.8 N 13 20 7 11 1015.2 1015.2 0.2
28/12:00am 21.5 19.2 9.1 45 6.6 N 11 19 6 10 1015.3 1015.3 0.2
 
Date/Time
EST
Temp
°C
App
Temp
°C
Dew
Point
Rel
Hum
%
Delta-T
°C
Wind Press
QNH
hPa
Press
MSL
hPa
Rain
since 9 am
mm
Dir
 
Spd
km/h
Gust
km/h
Spd
kts
Gust
kts
27/11:30pm 21.6 18.6 9.2 45 6.6 N 15 22 8 12 1015.5 1015.5 0.2
27/11:00pm 22.0 18.9 8.9 43 7.0 N 15 24 8 13 1015.7 1015.7 0.2
27/10:30pm 22.6 18.8 9.0 42 7.3 NNW 19 30 10 16 1016.1 1016.1 0.2
27/10:00pm 21.6 20.0 10.1 48 6.2 N 9 20 5 11 1016.3 1016.3 0.2
27/09:30pm 19.4 18.2 11.7 61 4.3 NE 9 13 5 7 1016.4 1016.4 0.2
27/09:00pm 19.8 18.7 10.8 56 4.9 NE 7 11 4 6 1016.4 1016.4 0.2
27/08:30pm 20.9 19.0 10.4 51 5.7 NE 11 17 6 9 1016.4 1016.4 0.2
27/08:00pm 21.2 18.4 10.1 49 6.0 NNE 15 20 8 11 1016.4 1016.4 0.2
27/07:30pm 20.7 18.4 10.5 52 5.5 NNE 13 19 7 10 1016.6 1016.6 0.2
27/07:00pm 20.7 18.1 10.8 53 5.4 NNE 15 19 8 10 1016.8 1016.8 0.2
27/06:30pm 19.3 17.8 10.6 57 4.7 NNE 9 13 5 7 1016.9 1016.9 0.2
27/06:00pm 21.2 19.8 9.4 47 6.3 N 7 11 4 6 1016.7 1016.7 0.2
27/05:30pm 22.1 20.3 9.6 45 6.7 N 9 11 5 6 1016.6 1016.6 0.2
27/05:00pm 22.7 20.5 9.5 43 7.1 NNW 11 22 6 12 1016.5 1016.5 0.2
27/04:30pm 24.5 21.6 9.6 39 8.1 NNW 15 22 8 12 1016.3 1016.3 0.2
27/04:00pm 24.8 20.4 9.1 37 8.5 NNW 22 30 12 16 1016.4 1016.4 0.2
27/03:30pm 26.3 21.7 9.6 35 9.2 NNW 24 35 13 19 1016.4 1016.4 0.2

Other Formats:

Comma delimited format used in spreadsheet applications
http://www.bom.gov.au/fwo/IDV60801/IDV60801.94911.axf

JavaScript Object Notation format (JSON) in row-major order
http://www.bom.gov.au/fwo/IDV60801/IDV60801.94911.json